createdAt,value
2023-04-26T00:00:35.191Z,98331.59
2023-04-26T00:03:05.474Z,98342.38
2023-04-26T00:05:36.282Z,98343.19
2023-04-26T00:08:07.343Z,98339.44
2023-04-26T01:07:36.657Z,98412.75
2023-04-26T01:10:07.231Z,98407.78
2023-04-26T01:12:37.675Z,98419.41
2023-04-26T01:15:07.486Z,98418.56
2023-04-26T01:17:39.069Z,98420.03
2023-04-26T01:20:11.504Z,98417.31
2023-04-26T01:22:40.993Z,98417.78
2023-04-26T01:25:14.020Z,98423.94
2023-04-26T01:27:43.748Z,98430.13
2023-04-26T01:30:13.990Z,98434.69
2023-04-26T01:32:43.400Z,98431.13
2023-04-26T01:35:12.523Z,98424.31
2023-04-26T01:37:41.704Z,98432.13
2023-04-26T01:40:11.812Z,98436.38
2023-04-26T01:42:41.008Z,98430.91
2023-04-26T01:45:10.297Z,98428.44
2023-04-26T01:51:09.379Z,98441.53
2023-04-26T01:53:39.063Z,98441.50
2023-04-26T01:56:08.947Z,98450.31
2023-04-26T01:58:39.505Z,98458.34
2023-04-26T02:01:10.858Z,98459.06
2023-04-26T02:03:40.891Z,98448.19
2023-04-26T02:06:10.544Z,98461.81
2023-04-26T02:08:39.529Z,98461.97
2023-04-26T02:11:09.098Z,98462.69
2023-04-26T02:13:38.911Z,98463.59
2023-04-26T02:16:08.816Z,98467.84
2023-04-26T02:18:38.221Z,98468.47
2023-04-26T02:21:10.377Z,98472.63
2023-04-26T02:23:39.875Z,98469.41
2023-04-26T02:26:11.255Z,98468.59
2023-04-26T02:28:41.109Z,98470.06
2023-04-26T02:31:10.567Z,98473.63
2023-04-26T02:33:39.876Z,98469.22
2023-04-26T02:36:09.643Z,98478.75
2023-04-26T02:38:39.590Z,98481.56
2023-04-26T02:41:08.772Z,98479.25
2023-04-26T02:43:38.521Z,98485.94
2023-04-26T02:46:10.436Z,98493.16
2023-04-26T02:48:39.862Z,98494.47
2023-04-26T02:51:09.551Z,98485.59
2023-04-26T02:53:38.911Z,98493.88
2023-04-26T02:56:08.144Z,98485.72
2023-04-26T02:58:37.293Z,98491.69
2023-04-26T03:01:07.828Z,98500.16
2023-04-26T03:03:38.431Z,98495.78
2023-04-26T03:06:08.446Z,98499.53
2023-04-26T03:08:37.732Z,98507.50
2023-04-26T03:11:08.254Z,98512.06
2023-04-26T03:13:38.534Z,98516.09
2023-04-26T03:16:08.413Z,98515.19
2023-04-26T03:18:38.596Z,98528.06
2023-04-26T03:21:10.668Z,98528.84
2023-04-26T03:23:40.395Z,98522.59
2023-04-26T03:26:09.660Z,98526.13
2023-04-26T03:28:39.784Z,98522.22
2023-04-26T03:31:09.566Z,98519.16
2023-04-26T03:33:38.798Z,98526.13
2023-04-26T03:36:08.946Z,98520.84
2023-04-26T03:38:37.973Z,98527.47
2023-04-26T03:41:07.495Z,98531.34
2023-04-26T03:43:36.535Z,98529.53
2023-04-26T03:46:06.744Z,98528.25
2023-04-26T03:48:36.371Z,98527.44
2023-04-26T03:51:05.487Z,98532.41
2023-04-26T03:53:35.320Z,98533.09
2023-04-26T03:56:04.794Z,98536.81
2023-04-26T03:58:35.110Z,98530.41
2023-04-26T04:01:06.156Z,98533.88
2023-04-26T04:03:39.234Z,98536.22
2023-04-26T04:06:10.921Z,98534.13
2023-04-26T04:08:41.270Z,98536.88
2023-04-26T04:11:10.765Z,98546.34
2023-04-26T04:13:41.314Z,98544.88
2023-04-26T04:16:11.438Z,98540.25
2023-04-26T04:18:40.690Z,98540.75
2023-04-26T04:21:10.695Z,98546.81
2023-04-26T04:23:41.050Z,98546.38
2023-04-26T04:26:13.952Z,98546.28
2023-04-26T04:28:43.379Z,98544.25
2023-04-26T04:31:14.134Z,98547.00
2023-04-26T04:33:44.065Z,98551.78
2023-04-26T04:36:17.852Z,98548.59
2023-04-26T04:38:48.563Z,98542.19
2023-04-26T04:41:24.598Z,98548.38
2023-04-26T04:43:55.228Z,98546.59
2023-04-26T04:46:26.666Z,98542.88
2023-04-26T04:48:57.239Z,98548.19
2023-04-26T04:51:29.251Z,98543.03
2023-04-26T04:53:59.365Z,98541.88
2023-04-26T04:56:30.212Z,98545.66
2023-04-26T04:59:00.955Z,98532.78
2023-04-26T05:01:31.163Z,98540.16
2023-04-26T05:04:03.019Z,98537.69
2023-04-26T05:06:35.639Z,98540.13
2023-04-26T05:09:07.060Z,98537.22
2023-04-26T05:11:37.991Z,98532.31
2023-04-26T05:14:15.281Z,98529.97
2023-04-26T05:16:45.275Z,98524.16
2023-04-26T05:19:15.076Z,98525.81
2023-04-26T05:21:44.569Z,98526.34
2023-04-26T05:24:14.149Z,98520.97
2023-04-26T05:26:44.064Z,98528.84
2023-04-26T05:29:33.870Z,98527.59
2023-04-26T05:32:23.704Z,98516.59
2023-04-26T05:35:17.096Z,98511.81
2023-04-26T05:37:46.997Z,98513.75
2023-04-26T05:40:16.904Z,98508.84
2023-04-26T05:42:47.097Z,98513.88
2023-04-26T05:45:16.926Z,98509.84
2023-04-26T05:47:48.548Z,98505.41
2023-04-26T05:50:18.603Z,98509.44
2023-04-26T05:52:48.044Z,98510.25
2023-04-26T05:55:17.257Z,98501.34
2023-04-26T05:57:47.022Z,98511.19
2023-04-26T06:00:17.748Z,98511.28
2023-04-26T06:02:49.562Z,98506.06
2023-04-26T06:05:20.484Z,98515.81
2023-04-26T06:07:51.067Z,98508.28
2023-04-26T06:10:20.401Z,98502.66
2023-04-26T06:12:49.690Z,98503.34
2023-04-26T06:15:21.084Z,98499.75
2023-04-26T06:17:50.768Z,98500.69
2023-04-26T06:20:19.983Z,98494.25
2023-04-26T06:22:51.605Z,98496.47
2023-04-26T06:25:21.505Z,98484.81
2023-04-26T06:27:51.653Z,98478.75
2023-04-26T06:30:20.780Z,98487.69
2023-04-26T06:32:50.492Z,98475.53
2023-04-26T06:35:20.559Z,98478.44
2023-04-26T06:37:50.257Z,98472.09
2023-04-26T06:40:20.077Z,98471.75
2023-04-26T06:42:50.039Z,98473.22
2023-04-26T06:45:20.121Z,98476.91
2023-04-26T06:47:49.870Z,98463.09
2023-04-26T06:50:19.350Z,98468.63
2023-04-26T06:52:53.158Z,98455.88
2023-04-26T06:55:24.065Z,98452.31
2023-04-26T06:57:54.411Z,98442.38
2023-04-26T07:00:24.743Z,98442.84
2023-04-26T07:02:54.186Z,98445.59
2023-04-26T07:05:23.951Z,98437.97
2023-04-26T07:07:53.508Z,98435.94
2023-04-26T07:10:24.024Z,98429.66
2023-04-26T07:12:53.541Z,98428.41
2023-04-26T07:15:23.706Z,98423.34
2023-04-26T07:17:53.087Z,98424.97
2023-04-26T07:20:24.046Z,98429.78
2023-04-26T07:22:53.660Z,98421.06
2023-04-26T07:25:23.059Z,98419.75
2023-04-26T07:27:53.457Z,98414.63
2023-04-26T07:30:23.328Z,98412.25
2023-04-26T07:32:54.302Z,98404.25
2023-04-26T07:35:24.309Z,98398.03
2023-04-26T07:37:55.056Z,98401.50
2023-04-26T07:40:25.778Z,98396.56
2023-04-26T07:42:55.367Z,98395.75
2023-04-26T07:45:35.395Z,98388.88
2023-04-26T07:48:04.988Z,98382.78
2023-04-26T07:50:34.758Z,98391.47
2023-04-26T07:53:04.442Z,98387.78
2023-04-26T07:55:33.480Z,98377.72
2023-04-26T07:58:03.325Z,98363.34
2023-04-26T08:00:33.481Z,98360.44
2023-04-26T08:03:02.800Z,98358.00
2023-04-26T08:05:33.025Z,98357.19
2023-04-26T08:08:02.963Z,98355.78
2023-04-26T08:10:32.825Z,98344.44
2023-04-26T08:13:04.609Z,98339.63
2023-04-26T08:15:34.110Z,98337.09
2023-04-26T08:18:03.817Z,98322.47
2023-04-26T08:20:36.058Z,98317.34
2023-04-26T08:23:05.666Z,98322.50
2023-04-26T08:25:35.982Z,98309.69
2023-04-26T08:28:05.794Z,98310.69
2023-04-26T08:30:36.017Z,98308.38
2023-04-26T08:33:05.548Z,98303.31
2023-04-26T08:35:34.938Z,98302.94
2023-04-26T08:38:09.646Z,98294.50
2023-04-26T08:40:45.083Z,98296.44
2023-04-26T08:43:18.589Z,98284.16
2023-04-26T08:45:48.661Z,98281.81
2023-04-26T08:48:19.992Z,98274.53
2023-04-26T08:50:51.284Z,98274.53
2023-04-26T08:53:22.955Z,98274.78
2023-04-26T08:55:53.153Z,98268.44
2023-04-26T08:58:23.994Z,98265.69
2023-04-26T09:00:54.346Z,98265.28
2023-04-26T09:03:27.643Z,98251.03
2023-04-26T09:05:59.268Z,98259.13
2023-04-26T09:08:30.808Z,98249.84
2023-04-26T09:11:00.207Z,98254.72
2023-04-26T09:13:32.394Z,98245.50
2023-04-26T09:16:04.606Z,98242.63
2023-04-26T09:18:35.186Z,98237.13
2023-04-26T09:21:10.042Z,98235.34
2023-04-26T09:24:05.522Z,98228.81
2023-04-26T09:26:34.762Z,98223.19
2023-04-26T09:29:19.721Z,98216.63
2023-04-26T09:31:51.097Z,98205.47
2023-04-26T09:34:20.936Z,98203.34
2023-04-26T09:36:57.884Z,98202.31
2023-04-26T09:39:41.859Z,98202.81
2023-04-26T09:42:15.301Z,98198.16
2023-04-26T09:48:47.902Z,98175.09
2023-04-26T09:51:18.544Z,98171.91
2023-04-26T09:53:49.769Z,98169.13
2023-04-26T09:56:21.935Z,98168.34
2023-04-26T09:59:00.561Z,98158.06
2023-04-26T10:01:31.376Z,98152.09
2023-04-26T10:04:05.636Z,98143.06
2023-04-26T10:06:35.219Z,98138.09
2023-04-26T10:09:06.994Z,98141.63
2023-04-26T10:11:37.516Z,98135.47
2023-04-26T10:14:09.540Z,98127.41
2023-04-26T10:16:39.661Z,98122.47
2023-04-26T10:19:12.891Z,98126.94
2023-04-26T10:21:44.651Z,98116.00
2023-04-26T10:24:14.802Z,98112.09
2023-04-26T10:26:57.970Z,98106.09
2023-04-26T10:29:48.377Z,98106.03
2023-04-26T10:32:19.644Z,98091.44
2023-04-26T10:35:26.090Z,98100.03
2023-04-26T10:38:01.466Z,98096.13
2023-04-26T10:40:41.532Z,98089.75
2023-04-26T10:43:18.242Z,98091.44
2023-04-26T10:45:49.523Z,98087.13
2023-04-26T10:48:32.489Z,98086.34
2023-04-26T10:51:06.936Z,98080.22
2023-04-26T10:53:48.737Z,98073.03
2023-04-26T10:56:33.510Z,98075.94
2023-04-26T10:59:33.428Z,98065.69
2023-04-26T11:02:04.620Z,98067.75
2023-04-26T11:04:55.953Z,98055.78
2023-04-26T11:07:41.079Z,98051.94
2023-04-26T11:10:11.802Z,98051.59
2023-04-26T11:12:44.392Z,98047.34
2023-04-26T11:15:14.588Z,98047.84
2023-04-26T11:17:44.443Z,98050.66
2023-04-26T11:20:19.198Z,98046.69
2023-04-26T11:22:49.639Z,98037.34
2023-04-26T11:25:19.778Z,98027.59
2023-04-26T11:27:50.666Z,98035.09
2023-04-26T11:30:21.170Z,98029.19
2023-04-26T11:32:51.137Z,98022.81
2023-04-26T11:35:22.951Z,98013.63
2023-04-26T11:37:55.964Z,98011.94
2023-04-26T11:40:25.356Z,98024.94
2023-04-26T11:42:54.762Z,98018.22
2023-04-26T11:45:24.814Z,98015.16
2023-04-26T11:47:54.830Z,98007.25
2023-04-26T11:50:27.952Z,98006.22
2023-04-26T11:52:58.847Z,98009.19
2023-04-26T11:55:36.150Z,98016.22
2023-04-26T11:58:16.148Z,98013.25
2023-04-26T12:01:05.424Z,98011.56
2023-04-26T12:03:38.976Z,98014.06
2023-04-26T12:06:09.281Z,98015.66
2023-04-26T12:08:38.275Z,98007.41
2023-04-26T12:11:07.491Z,98016.16
2023-04-26T12:13:37.078Z,98012.63
2023-04-26T12:16:25.649Z,98006.81
2023-04-26T12:18:58.068Z,98004.81
2023-04-26T12:21:30.639Z,98006.66
2023-04-26T12:24:00.348Z,98013.50
2023-04-26T12:26:46.239Z,98012.88
2023-04-26T12:29:15.749Z,98017.25
2023-04-26T12:31:45.212Z,98012.91
2023-04-26T12:34:14.775Z,98013.34
2023-04-26T12:36:47.166Z,98012.88
2023-04-26T12:39:16.872Z,98014.66
2023-04-26T12:41:47.565Z,98019.81
2023-04-26T12:44:17.279Z,98013.50
2023-04-26T12:46:48.395Z,98021.53
2023-04-26T12:49:17.632Z,98017.94
2023-04-26T12:51:47.505Z,98024.13
2023-04-26T12:54:16.781Z,98025.81
2023-04-26T12:56:46.424Z,98023.06
2023-04-26T12:59:18.266Z,98027.47
2023-04-26T13:01:47.693Z,98023.06
2023-04-26T13:04:17.371Z,98029.19
2023-04-26T13:06:46.577Z,98028.28
2023-04-26T13:09:16.179Z,98032.97
2023-04-26T13:11:45.746Z,98033.38
2023-04-26T13:14:14.793Z,98033.56
2023-04-26T13:16:44.960Z,98035.53
2023-04-26T13:19:14.364Z,98033.97
2023-04-26T13:21:44.455Z,98037.19
2023-04-26T13:24:14.807Z,98023.91
2023-04-26T13:26:44.037Z,98032.56
2023-04-26T13:29:13.268Z,98033.41
2023-04-26T13:31:42.724Z,98034.69
2023-04-26T13:34:14.342Z,98035.66
2023-04-26T13:36:43.907Z,98029.44
2023-04-26T13:39:14.195Z,98034.53
2023-04-26T13:41:43.895Z,98031.84
2023-04-26T13:44:15.440Z,98044.50
2023-04-26T13:46:45.432Z,98048.88
2023-04-26T13:49:15.946Z,98049.50
2023-04-26T13:51:45.438Z,98046.13
2023-04-26T13:54:15.159Z,98052.53
2023-04-26T13:56:44.655Z,98049.03
2023-04-26T13:59:14.561Z,98052.38
2023-04-26T14:01:43.959Z,98056.38
2023-04-26T14:04:13.783Z,98057.50
2023-04-26T14:06:43.441Z,98061.50
2023-04-26T14:09:13.272Z,98063.09
2023-04-26T14:11:42.645Z,98073.19
2023-04-26T14:14:12.325Z,98077.34
2023-04-26T14:16:44.914Z,98077.19
2023-04-26T14:19:16.475Z,98091.91
2023-04-26T14:21:46.820Z,98087.28
2023-04-26T14:24:16.622Z,98097.34
2023-04-26T14:26:45.891Z,98097.00
2023-04-26T14:29:15.427Z,98102.44
2023-04-26T14:31:45.123Z,98111.19
2023-04-26T14:34:14.956Z,98108.16
2023-04-26T14:36:44.743Z,98111.81
2023-04-26T14:39:14.903Z,98110.84
2023-04-26T14:41:44.339Z,98121.53
2023-04-26T14:44:14.032Z,98122.34
2023-04-26T14:46:43.593Z,98112.91
2023-04-26T14:49:14.113Z,98126.00
2023-04-26T14:51:43.736Z,98130.03
2023-04-26T14:54:13.924Z,98138.19
2023-04-26T14:56:43.660Z,98145.53
2023-04-26T14:59:12.974Z,98148.69
2023-04-26T15:01:42.905Z,98166.31
2023-04-26T15:04:12.644Z,98175.47
2023-04-26T15:06:42.247Z,98183.47
2023-04-26T15:09:12.891Z,98188.72
2023-04-26T15:11:42.380Z,98173.53
2023-04-26T15:14:11.717Z,98193.63
2023-04-26T15:16:41.105Z,98196.00
2023-04-26T15:19:10.165Z,98203.44
2023-04-26T15:21:39.397Z,98201.31
2023-04-26T15:24:09.672Z,98213.09
2023-04-26T15:26:39.370Z,98202.03
2023-04-26T15:29:08.437Z,98210.50
2023-04-26T15:31:38.793Z,98216.38
2023-04-26T15:34:07.966Z,98218.28
2023-04-26T15:36:37.498Z,98214.53
2023-04-26T15:39:07.039Z,98216.19
2023-04-26T15:41:36.140Z,98211.31
2023-04-26T15:44:05.840Z,98208.75
2023-04-26T15:46:37.372Z,98212.88
2023-04-26T15:49:07.461Z,98212.19
2023-04-26T15:51:36.970Z,98224.50
2023-04-26T15:54:06.426Z,98219.06
2023-04-26T15:56:35.934Z,98219.69
2023-04-26T15:59:05.519Z,98231.34
2023-04-26T16:01:36.414Z,98240.09
2023-04-26T16:04:06.747Z,98239.28
2023-04-26T16:06:36.256Z,98242.63
2023-04-26T16:09:23.264Z,98249.88
2023-04-26T16:11:54.562Z,98254.94
2023-04-26T16:14:24.371Z,98269.81
2023-04-26T16:17:00.642Z,98269.31
2023-04-26T16:19:30.870Z,98276.44
2023-04-26T16:22:00.291Z,98272.75
2023-04-26T16:24:29.393Z,98280.69
2023-04-26T16:26:59.235Z,98272.38
2023-04-26T16:29:28.972Z,98279.72
2023-04-26T16:31:58.758Z,98280.53
2023-04-26T16:34:28.472Z,98278.09
2023-04-26T16:36:58.102Z,98270.56
2023-04-26T16:39:29.295Z,98266.06
2023-04-26T16:41:59.622Z,98270.97
2023-04-26T16:44:29.637Z,98266.50
2023-04-26T16:47:00.586Z,98264.66
2023-04-26T16:49:31.116Z,98268.69
2023-04-26T16:52:01.624Z,98261.94
2023-04-26T16:54:31.508Z,98264.44
2023-04-26T16:57:01.607Z,98261.44
2023-04-26T16:59:30.642Z,98266.97
2023-04-26T17:02:00.520Z,98253.19
2023-04-26T17:04:30.739Z,98259.09
2023-04-26T17:07:01.122Z,98258.44
2023-04-26T17:09:31.762Z,98268.88
2023-04-26T17:12:01.957Z,98271.91
2023-04-26T17:14:33.449Z,98276.22
2023-04-26T17:17:03.689Z,98286.59
2023-04-26T17:19:33.612Z,98286.59
2023-04-26T17:22:02.899Z,98280.66
2023-04-26T17:24:33.525Z,98285.38
2023-04-26T17:27:04.056Z,98282.78
2023-04-26T17:29:34.244Z,98276.84
2023-04-26T17:32:04.492Z,98275.22
2023-04-26T17:34:33.645Z,98275.22
2023-04-26T17:37:03.540Z,98263.06
2023-04-26T17:39:33.401Z,98264.59
2023-04-26T17:42:04.449Z,98267.78
2023-04-26T17:44:33.870Z,98259.25
2023-04-26T17:47:02.937Z,98260.66
2023-04-26T17:49:33.487Z,98253.41
2023-04-26T17:52:03.738Z,98252.63
2023-04-26T17:54:34.340Z,98244.28
2023-04-26T17:57:05.063Z,98236.94
2023-04-26T17:59:35.258Z,98232.72
2023-04-26T18:02:05.254Z,98226.47
2023-04-26T18:04:34.864Z,98226.28
2023-04-26T18:07:05.911Z,98228.84
2023-04-26T18:09:35.785Z,98227.97
2023-04-26T18:12:38.152Z,98231.47
2023-04-26T18:15:08.988Z,98231.06
2023-04-26T18:17:39.263Z,98235.28
2023-04-26T18:20:10.449Z,98233.66
2023-04-26T18:22:41.693Z,98234.84
2023-04-26T18:25:12.266Z,98227.81
2023-04-26T18:27:43.292Z,98228.41
2023-04-26T18:30:14.481Z,98226.28
2023-04-26T18:32:44.352Z,98228.00
2023-04-26T18:35:14.555Z,98228.19
2023-04-26T18:37:45.018Z,98226.38
2023-04-26T18:40:14.930Z,98231.31
2023-04-26T18:42:46.463Z,98228.88
2023-04-26T18:45:16.220Z,98227.56
2023-04-26T18:47:46.742Z,98227.88
2023-04-26T18:50:16.711Z,98223.25
2023-04-26T18:52:46.816Z,98223.25
2023-04-26T18:55:16.269Z,98225.16
2023-04-26T18:57:46.616Z,98222.47
2023-04-26T19:00:17.134Z,98218.91
2023-04-26T19:02:48.390Z,98212.69
2023-04-26T19:05:20.437Z,98215.38
2023-04-26T19:07:56.757Z,98212.16
2023-04-26T19:10:26.872Z,98216.81
2023-04-26T19:12:56.918Z,98216.00
2023-04-26T19:15:26.791Z,98220.09
2023-04-26T19:17:56.729Z,98209.25
2023-04-26T19:20:28.388Z,98217.03
2023-04-26T19:22:59.083Z,98216.28
2023-04-26T19:25:30.697Z,98209.25
2023-04-26T19:28:00.643Z,98201.13
2023-04-26T19:30:30.565Z,98203.34
2023-04-26T19:33:00.521Z,98198.19
2023-04-26T19:35:30.692Z,98195.00
2023-04-26T19:38:00.225Z,98195.78
2023-04-26T19:40:29.643Z,98198.50
2023-04-26T19:42:59.152Z,98196.91
2023-04-26T19:45:30.231Z,98196.91
2023-04-26T19:48:00.819Z,98195.09
2023-04-26T19:50:30.503Z,98195.38
2023-04-26T19:52:59.845Z,98191.38
2023-04-26T19:55:30.878Z,98183.81
2023-04-26T19:58:00.528Z,98179.81
2023-04-26T20:00:31.378Z,98183.00
2023-04-26T20:03:00.716Z,98184.13
2023-04-26T20:05:30.050Z,98177.09
2023-04-26T20:08:00.152Z,98174.19
2023-04-26T20:10:33.000Z,98170.94
2023-04-26T20:13:02.753Z,98173.66
2023-04-26T20:15:33.475Z,98164.25
2023-04-26T20:18:03.480Z,98174.25
2023-04-26T20:20:32.594Z,98168.53
2023-04-26T20:23:04.334Z,98165.63
2023-04-26T20:25:33.817Z,98157.56
2023-04-26T20:28:04.941Z,98157.28
2023-04-26T20:30:34.835Z,98162.97
2023-04-26T20:33:03.995Z,98173.03
2023-04-26T20:35:33.655Z,98178.72
2023-04-26T20:38:02.849Z,98187.94
2023-04-26T20:40:32.210Z,98185.03
2023-04-26T20:43:02.059Z,98176.38
2023-04-26T20:45:31.324Z,98162.94
2023-04-26T20:48:01.283Z,98163.72
2023-04-26T20:50:30.436Z,98180.84
2023-04-26T20:52:59.748Z,98196.31
2023-04-26T20:55:29.039Z,98199.59
2023-04-26T20:57:58.306Z,98204.53
2023-04-26T21:00:27.603Z,98198.31
2023-04-26T21:02:57.809Z,98196.50
2023-04-26T21:05:27.787Z,98193.25
2023-04-26T21:07:57.765Z,98194.66
2023-04-26T21:10:27.269Z,98193.44
2023-04-26T21:12:56.399Z,98192.75
2023-04-26T21:15:25.778Z,98184.41
2023-04-26T21:17:55.396Z,98184.19
2023-04-26T21:20:25.025Z,98194.00
2023-04-26T21:22:54.096Z,98191.84
2023-04-26T21:25:23.882Z,98193.53
2023-04-26T21:27:53.137Z,98192.00
2023-04-26T21:30:22.585Z,98197.72
2023-04-26T21:32:52.200Z,98218.06
2023-04-26T21:35:21.527Z,98244.56
2023-04-26T21:37:50.536Z,98262.97
2023-04-26T22:18:57.565Z,98239.06
2023-04-26T22:21:27.865Z,98216.94
2023-04-26T22:23:57.637Z,98210.44
2023-04-26T22:26:27.448Z,98226.06
2023-04-26T22:28:56.631Z,98236.38
2023-04-26T22:31:25.940Z,98234.97
2023-04-26T22:33:55.393Z,98239.88
2023-04-26T22:36:25.278Z,98231.47
2023-04-26T23:03:08.029Z,98206.13
2023-04-26T23:05:38.661Z,98195.84
2023-04-26T23:08:07.964Z,98195.53
2023-04-26T23:10:37.318Z,98185.84
2023-04-26T23:13:06.616Z,98183.66
2023-04-26T23:15:35.926Z,98181.75
2023-04-26T23:18:05.118Z,98185.56
2023-04-26T23:20:34.668Z,98192.84
2023-04-26T23:23:04.021Z,98190.94
2023-04-26T23:25:33.525Z,98190.94
2023-04-26T23:28:03.059Z,98192.56
2023-04-26T23:30:32.536Z,98202.28
2023-04-26T23:33:01.990Z,98202.56
2023-04-26T23:35:31.170Z,98213.91
2023-04-26T23:38:00.296Z,98218.50
2023-04-26T23:40:30.251Z,98212.81
2023-04-26T23:42:59.189Z,98214.72
2023-04-26T23:45:28.469Z,98210.13
2023-04-26T23:47:57.750Z,98216.59
2023-04-26T23:50:27.514Z,98222.00
2023-04-26T23:52:56.644Z,98225.25
2023-04-26T23:55:25.865Z,98234.47
2023-04-26T23:57:57.645Z,98255.28
